KMVE/MVE METAR and TAF weather

Enter ICAO airport designator
Station Type Date Time Source
KMVE METAR 2021/03/05 07:35 UTC NOAA

KMVE 050735Z AUTO 16004KT 10SM CLR M01/M02 A3030 RMK AO2


Station Type Date Time Source
KMVE Decoded METAR 2021/03/05 07:35 UTC NOAA

Montevideo, Montevideo-Chippewa County Airport, MN, United States (KMVE) 44-58N 095-43W
Mar 05, 2021 - 02:35 AM EST / 2021.03.05 0735 UTC
Wind: from the SSE (160 degrees) at 5 MPH (4 KT):0
Visibility: 10 mile(s):0
Sky conditions: clear
Temperature: 30 F (-1 C)
Windchill: 24 F (-4 C):1
Dew Point: 28 F (-2 C)
Relative Humidity: 92%
Pressure (altimeter): 30.3 in. Hg (1026 hPa)
ob: KMVE 050735Z AUTO 16004KT 10SM CLR M01/M02 A3030 RMK AO2
cycle: 7

Station Type Date Time Source
KMVE TAF UTC NOAA

Error!

Example: see airport list